METAR Data
IDs: Format: Raw Decoded Include TAF

Data at: 1225 UTC 16 Feb 2019

PATO 161153Z AUTO 00000KT 10SM CLR M14/M17 A3018 RMK AO2 SLP221 I6000 T11441167 11139 21167 51010 TSNO
PATO 161053Z AUTO 00000KT 10SM CLR M15/M17 A3017 RMK AO2 SLP219 T11501172 TSNO
PATO 160953Z AUTO 29003KT 10SM CLR M16/M18 A3016 RMK AO2 SLP215 T11611183 TSNO
PATO 160853Z AUTO 00000KT 10SM CLR M16/M18 A3015 RMK AO2 SLP211 I1000 I3000 T11611183 410781167 53001 TSNO
PATO 160753Z AUTO 30004KT 10SM CLR M16/M18 A3015 RMK AO2 SLP211 T11611183 TSNO
PATO 160653Z AUTO 00000KT 10SM CLR M16/M18 A3013 RMK AO2 SLP205 T11611183 TSNO
PATO 160553Z AUTO 00000KT 10SM CLR M14/M17 A3015 RMK AO2 SLP210 T11391172 11089 21139 51020 TSNO
PATO 160453Z AUTO 10SM CLR M13/M17 A3013 RMK AO2 SLP205 T11281172 TSNO
PATO 160353Z AUTO 35003KT 10SM CLR M11/M16 A3011 RMK AO2 SLP196 T11111161 TSNO
PATO 160253Z AUTO 25004KT 10SM CLR M11/M16 A3009 RMK AO2 SLP190 T11061161 53007 TSNO
PATO 160153Z AUTO 25005KT 10SM CLR M10/M16 A3008 RMK AO2 SLP188 T11001156 TSNO
PATO 160053Z AUTO 30008KT 10SM CLR M09/M16 A3006 RMK AO2 SLP181 T10891156 TSNO
PATO 152353Z AUTO 28007KT 10SM CLR M09/M16 A3007 RMK AO2 SLP183 T10891156 11078 21106 53015 TSNO
PATO 152253Z AUTO 28008G17KT 10SM CLR M08/M15 A3005 RMK AO2 SLP178 T10781150 TSNO
PATO 152153Z AUTO 29008G16KT 10SM CLR M08/M14 A3003 RMK AO2 SLP170 T10831139 TSNO
PATO 152053Z AUTO 29008G22KT 10SM CLR M09/M14 A3002 RMK AO2 SLP168 T10891139 51012 TSNO
PATO 151953Z AUTO 29009G18KT 10SM CLR M09/M15 A3001 RMK AO2 SLP165 T10941150 TSNO
PATO 151853Z AUTO 30007KT 10SM CLR M10/M16 A3001 RMK AO2 SLP165 T11001156 TSNO
PATO 151753Z AUTO 27012G21KT 10SM CLR M10/M16 A2999 RMK AO2 SLP157 T11001156 11094 21111 53010 TSNO
PATO 151653Z AUTO 27011G21KT 10SM CLR M10/M15 A2998 RMK AO2 SLP154 T11001150 TSNO
PATO 151553Z AUTO 28010G19KT 10SM CLR M10/M14 A2996 RMK AO2 SLP147 T11001144 TSNO
PATO 151453Z AUTO 28010G22KT 10SM CLR M10/M15 A2996 RMK AO2 SLP146 T11001150 53007 TSNO
PATO 151353Z AUTO 27009G18KT 10SM CLR M10/M16 A2995 RMK AO2 SLP144 T11001156 TSNO
PATO 151253Z AUTO 29007G17KT 10SM CLR M10/M16 A2993 RMK AO2 SLP138 T11001156 TSNO
PATO 151153Z AUTO 28008G17KT 10SM CLR M10/M16 A2994 RMK AO2 SLP140 T11001161 11089 21117 55002 TSNO
PATO 151053Z AUTO 28010G17KT 10SM CLR M11/M16 A2993 RMK AO2 SLP137 T11061161 TSNO
PATO 150953Z AUTO 28007G15KT 10SM CLR M10/M16 A2994 RMK AO2 SLP142 T11001156 TSNO
PATO 150853Z AUTO 29006KT 10SM CLR M11/M16 A2995 RMK AO2 SLP142 T11061156 410721111 53005 TSNO
PATO 150753Z AUTO 29006KT 10SM CLR M10/M16 A2994 RMK AO2 SLP142 T11001156 TSNO
PATO 150653Z AUTO 28007KT 10SM CLR M10/M15 A2992 RMK AO2 SLP132 T11001150 TSNO
PATO 150553Z AUTO 27008KT 10SM CLR M10/M16 A2993 RMK AO2 SLP137 T11001156 11078 21106 55017 TSNO
PATO 150453Z AUTO 29008G18KT 10SM CLR M11/M16 A2992 RMK AO2 SLP133 T11061161 TSNO
PATO 150353Z AUTO 29007G17KT 10SM CLR M09/M16 A2996 RMK AO2 SLP146 T10891156 TSNO
PATO 150253Z AUTO 27008KT 10SM CLR M08/M16 A2998 RMK AO2 SLP154 T10831161 58004 TSNO
PATO 150153Z AUTO 26010G19KT 10SM CLR M08/M16 A2998 RMK AO2 SLP155 T10781161 TSNO
PATO 150053Z AUTO 26009G20KT 10SM CLR M08/M16 A2999 RMK AO2 PK WND 27026/0024 SLP158 T10781161 TSNO